createdAt,value
2023-05-22T00:01:26.688Z,18.50
2023-05-22T00:05:30.551Z,18.50
2023-05-22T00:09:33.408Z,18.60
2023-05-22T00:13:36.230Z,18.60
2023-05-22T00:17:39.272Z,18.70
2023-05-22T00:21:43.007Z,18.60
2023-05-22T00:25:45.834Z,18.60
2023-05-22T00:29:48.650Z,18.60
2023-05-22T00:33:51.495Z,18.60
2023-05-22T00:37:54.545Z,18.70
2023-05-22T00:41:58.007Z,18.70
2023-05-22T00:46:01.090Z,18.80
2023-05-22T00:50:06.103Z,18.90
2023-05-22T00:54:10.565Z,19.00
2023-05-22T00:58:18.573Z,19.00
2023-05-22T01:02:21.922Z,19.10
2023-05-22T01:06:24.853Z,19.10
2023-05-22T01:10:28.520Z,19.10
2023-05-22T01:14:37.071Z,19.10
2023-05-22T01:18:52.711Z,19.10
2023-05-22T01:23:20.760Z,19.10
2023-05-22T01:27:55.989Z,19.10
2023-05-22T01:32:00.639Z,19.00
2023-05-22T01:36:06.265Z,19.00
2023-05-22T01:40:12.197Z,19.00
2023-05-22T01:44:15.171Z,19.00
2023-05-22T01:48:18.264Z,18.90
2023-05-22T01:52:49.462Z,18.80
2023-05-22T01:56:57.508Z,18.80
2023-05-22T02:01:03.549Z,18.50
2023-05-22T02:05:09.778Z,18.10
2023-05-22T02:09:15.086Z,17.80
2023-05-22T02:13:18.284Z,17.50
2023-05-22T02:17:22.066Z,17.40
2023-05-22T02:21:25.116Z,17.10
2023-05-22T02:25:28.340Z,17.00
2023-05-22T02:29:31.249Z,16.80
2023-05-22T02:33:34.521Z,16.70
2023-05-22T02:37:37.880Z,16.50
2023-05-22T02:41:40.664Z,16.40
2023-05-22T02:45:43.850Z,16.30
2023-05-22T02:49:47.115Z,16.30
2023-05-22T02:53:50.973Z,16.20
2023-05-22T02:57:53.832Z,16.10
2023-05-22T03:01:56.907Z,16.20
2023-05-22T03:06:01.913Z,16.20
2023-05-22T03:10:05.628Z,16.10
2023-05-22T03:14:08.540Z,16.00
2023-05-22T03:18:11.767Z,16.00
2023-05-22T03:22:15.750Z,16.00
2023-05-22T03:26:18.494Z,16.00
2023-05-22T03:30:21.504Z,16.00
2023-05-22T03:34:36.919Z,16.00
2023-05-22T03:38:42.956Z,16.50
2023-05-22T03:42:45.966Z,17.00
2023-05-22T03:46:49.074Z,17.30
2023-05-22T03:50:52.047Z,17.60
2023-05-22T03:54:54.917Z,17.90
2023-05-22T03:58:57.823Z,18.00
2023-05-22T04:03:01.121Z,18.30
2023-05-22T04:07:08.385Z,18.40
2023-05-22T04:11:11.146Z,18.50
2023-05-22T04:15:14.163Z,18.20
2023-05-22T04:19:18.348Z,18.00
2023-05-22T04:23:21.621Z,17.80
2023-05-22T04:27:25.061Z,17.60
2023-05-22T04:31:28.608Z,17.50
2023-05-22T04:35:31.928Z,17.30
2023-05-22T04:39:34.716Z,17.30
2023-05-22T04:43:38.780Z,17.30
2023-05-22T04:47:42.563Z,17.20
2023-05-22T04:51:45.555Z,17.20
2023-05-22T04:55:55.921Z,17.10
2023-05-22T04:59:59.929Z,17.10
2023-05-22T05:04:03.783Z,17.50
2023-05-22T05:08:07.100Z,17.80
2023-05-22T05:12:10.055Z,18.10
2023-05-22T05:16:16.061Z,18.40
2023-05-22T05:20:19.272Z,18.70
2023-05-22T05:24:25.054Z,18.90
2023-05-22T05:28:28.004Z,19.00
2023-05-22T05:32:31.742Z,19.30
2023-05-22T05:36:57.761Z,19.60
2023-05-22T05:41:02.011Z,19.80
2023-05-22T05:45:06.012Z,20.00
2023-05-22T05:49:11.274Z,20.20
2023-05-22T05:53:16.425Z,20.40
2023-05-22T05:57:24.842Z,20.50
2023-05-22T06:01:29.441Z,20.70
2023-05-22T06:05:32.347Z,20.90
2023-05-22T06:09:50.299Z,21.10
2023-05-22T06:14:05.622Z,21.30
2023-05-22T06:18:08.914Z,21.50
2023-05-22T06:22:13.332Z,21.70
2023-05-22T06:26:19.022Z,21.90
2023-05-22T06:30:38.816Z,22.10
2023-05-22T06:34:47.221Z,22.30
2023-05-22T06:38:55.005Z,22.40
2023-05-22T06:43:16.522Z,22.50
2023-05-22T06:47:44.714Z,22.60
2023-05-22T06:51:47.835Z,22.90
2023-05-22T06:55:53.078Z,23.00
2023-05-22T07:00:09.845Z,23.10
2023-05-22T07:04:31.466Z,23.10
2023-05-22T07:08:42.348Z,23.10
2023-05-22T07:12:45.621Z,23.10
2023-05-22T07:16:48.894Z,23.00
2023-05-22T07:20:58.751Z,23.10
2023-05-22T07:25:01.809Z,23.20
2023-05-22T07:29:08.489Z,23.00
2023-05-22T07:33:12.712Z,23.00
2023-05-22T07:37:16.215Z,23.30
2023-05-22T07:41:24.201Z,23.60
2023-05-22T07:45:27.253Z,23.80
2023-05-22T07:49:31.872Z,23.80
2023-05-22T07:53:36.565Z,23.90
2023-05-22T07:57:40.947Z,24.00
2023-05-22T08:02:08.517Z,24.00
2023-05-22T08:06:11.564Z,24.40
2023-05-22T08:10:17.159Z,24.70
2023-05-22T08:14:22.015Z,24.90
2023-05-22T08:18:28.068Z,25.00
2023-05-22T08:22:31.512Z,25.10
2023-05-22T08:26:34.556Z,25.40
2023-05-22T08:30:37.683Z,25.50
2023-05-22T08:34:42.162Z,25.60
2023-05-22T08:38:45.365Z,25.80
2023-05-22T08:42:51.529Z,25.90
2023-05-22T08:46:57.013Z,25.90
2023-05-22T08:51:06.069Z,26.10
2023-05-22T08:55:09.833Z,26.00
2023-05-22T08:59:13.029Z,25.90
2023-05-22T09:03:16.336Z,25.50
2023-05-22T09:07:22.287Z,25.10
2023-05-22T09:11:26.367Z,25.10
2023-05-22T09:15:31.789Z,25.40
2023-05-22T09:19:34.802Z,25.70
2023-05-22T09:23:38.109Z,26.00
2023-05-22T09:27:46.440Z,26.00
2023-05-22T09:31:49.453Z,26.00
2023-05-22T09:35:54.277Z,25.90
2023-05-22T09:39:57.959Z,26.10
2023-05-22T09:44:02.146Z,26.20
2023-05-22T09:48:06.625Z,26.30
2023-05-22T09:52:12.677Z,26.30
2023-05-22T09:56:27.167Z,26.50
2023-05-22T10:00:39.069Z,26.60
2023-05-22T10:04:42.977Z,26.60
2023-05-22T10:08:59.057Z,26.90
2023-05-22T10:13:03.258Z,27.00
2023-05-22T10:17:07.071Z,27.00
2023-05-22T10:21:10.300Z,26.90
2023-05-22T10:25:13.341Z,26.90
2023-05-22T10:29:22.456Z,27.00
2023-05-22T10:33:36.866Z,27.30
2023-05-22T10:37:51.161Z,27.50
2023-05-22T10:41:54.256Z,27.80
2023-05-22T10:46:04.435Z,28.00
2023-05-22T10:50:09.720Z,28.00
2023-05-22T10:54:12.672Z,28.00
2023-05-22T10:58:25.558Z,28.20
2023-05-22T11:02:31.225Z,28.40
2023-05-22T11:06:52.910Z,28.50
2023-05-22T11:10:59.088Z,28.70
2023-05-22T11:15:08.867Z,28.80
2023-05-22T11:19:22.592Z,28.70
2023-05-22T11:23:26.618Z,28.40
2023-05-22T11:27:29.589Z,28.60
2023-05-22T11:31:32.724Z,28.90
2023-05-22T11:35:36.129Z,28.90
2023-05-22T11:39:38.950Z,29.20
2023-05-22T11:43:43.256Z,29.40
2023-05-22T11:47:46.569Z,29.40
2023-05-22T11:51:49.730Z,29.40
2023-05-22T11:55:52.759Z,29.60
2023-05-22T11:59:55.477Z,29.50
2023-05-22T12:03:58.374Z,29.40
2023-05-22T12:08:01.515Z,29.40
2023-05-22T12:12:04.740Z,28.90
2023-05-22T12:16:27.980Z,28.60
2023-05-22T12:20:31.415Z,28.20
2023-05-22T12:24:42.045Z,27.80
2023-05-22T12:28:45.222Z,28.00
2023-05-22T12:32:50.389Z,28.00
2023-05-22T12:36:53.397Z,27.80
2023-05-22T12:40:57.309Z,27.70
2023-05-22T12:45:00.830Z,27.50
2023-05-22T12:49:03.873Z,27.30
2023-05-22T12:53:06.894Z,26.90
2023-05-22T12:57:09.864Z,26.80
2023-05-22T13:01:12.710Z,26.80
2023-05-22T13:05:15.966Z,27.00
2023-05-22T13:09:20.089Z,27.20
2023-05-22T13:13:23.207Z,27.30
2023-05-22T13:17:26.985Z,27.30
2023-05-22T13:21:29.847Z,27.50
2023-05-22T13:25:32.920Z,27.40
2023-05-22T13:29:36.038Z,27.30
2023-05-22T13:33:39.108Z,27.40
2023-05-22T13:37:42.044Z,27.40
2023-05-22T13:41:45.319Z,27.30
2023-05-22T13:45:48.330Z,27.20
2023-05-22T13:49:51.145Z,27.10
2023-05-22T13:53:54.110Z,26.80
2023-05-22T13:57:57.292Z,26.60
2023-05-22T14:02:00.324Z,26.40
2023-05-22T14:06:03.255Z,26.20
2023-05-22T14:10:07.023Z,26.00
2023-05-22T14:14:10.028Z,26.00
2023-05-22T14:18:16.679Z,26.00
2023-05-22T14:22:19.596Z,26.40
2023-05-22T14:26:22.589Z,26.70
2023-05-22T14:30:25.659Z,26.90
2023-05-22T14:34:28.791Z,27.00
2023-05-22T14:38:35.576Z,27.00
2023-05-22T14:42:39.571Z,27.00
2023-05-22T14:46:42.540Z,26.90
2023-05-22T14:50:47.161Z,26.50
2023-05-22T14:54:50.082Z,26.30
2023-05-22T14:58:53.035Z,26.20
2023-05-22T15:02:55.979Z,26.30
2023-05-22T15:06:58.829Z,26.50
2023-05-22T15:11:01.579Z,26.80
2023-05-22T15:15:04.914Z,27.10
2023-05-22T15:19:09.476Z,27.50
2023-05-22T15:23:12.405Z,27.90
2023-05-22T15:27:15.430Z,28.10
2023-05-22T15:31:18.373Z,28.00
2023-05-22T15:35:21.281Z,27.80
2023-05-22T15:39:24.173Z,27.50
2023-05-22T15:43:27.602Z,27.30
2023-05-22T15:47:30.455Z,27.00
2023-05-22T15:51:33.462Z,27.00
2023-05-22T15:55:36.758Z,26.80
2023-05-22T15:59:39.634Z,26.60
2023-05-22T16:03:42.595Z,26.50
2023-05-22T16:07:46.298Z,26.50
2023-05-22T16:11:49.331Z,26.40
2023-05-22T16:15:52.134Z,26.20
2023-05-22T16:19:55.101Z,26.20
2023-05-22T16:23:57.971Z,26.70
2023-05-22T16:28:00.948Z,27.40
2023-05-22T16:32:04.471Z,27.70
2023-05-22T16:36:07.597Z,27.80
2023-05-22T16:40:11.121Z,27.60
2023-05-22T16:44:13.993Z,27.40
2023-05-22T16:48:17.676Z,27.00
2023-05-22T16:52:23.423Z,26.70
2023-05-22T16:56:26.501Z,26.40
2023-05-22T17:00:29.417Z,26.10
2023-05-22T17:04:32.166Z,25.70
2023-05-22T17:08:35.044Z,25.00
2023-05-22T17:12:38.102Z,24.20
2023-05-22T17:16:41.008Z,23.80
2023-05-22T17:20:44.097Z,23.40
2023-05-22T17:24:48.604Z,23.10
2023-05-22T17:28:51.540Z,22.80
2023-05-22T17:32:57.725Z,22.60
2023-05-22T17:37:00.725Z,22.30
2023-05-22T17:41:03.565Z,22.10
2023-05-22T17:45:07.219Z,22.00
2023-05-22T17:49:10.135Z,21.90
2023-05-22T17:53:13.617Z,21.70
2023-05-22T17:57:16.930Z,21.50
2023-05-22T18:01:19.878Z,21.50
2023-05-22T18:05:22.658Z,21.50
2023-05-22T18:09:26.182Z,21.50
2023-05-22T18:13:32.050Z,21.40
2023-05-22T18:17:35.536Z,21.50
2023-05-22T18:21:38.253Z,21.30
2023-05-22T18:25:42.487Z,21.20
2023-05-22T18:29:45.527Z,21.10
2023-05-22T18:33:48.478Z,21.10
2023-05-22T18:37:51.544Z,21.10
2023-05-22T18:41:54.293Z,20.90
2023-05-22T18:45:58.079Z,20.80
2023-05-22T18:50:00.925Z,20.70
2023-05-22T18:54:03.920Z,20.70
2023-05-22T18:58:07.920Z,20.50
2023-05-22T19:02:11.757Z,20.30
2023-05-22T19:06:14.571Z,20.10
2023-05-22T19:10:17.467Z,20.00
2023-05-22T19:14:20.575Z,19.90
2023-05-22T19:18:27.608Z,19.70
2023-05-22T19:22:30.864Z,19.70
2023-05-22T19:26:33.752Z,19.60
2023-05-22T19:30:36.735Z,19.60
2023-05-22T19:34:39.933Z,19.50
2023-05-22T19:38:42.741Z,19.40
2023-05-22T19:42:45.682Z,19.30
2023-05-22T19:46:48.658Z,19.10
2023-05-22T19:50:52.307Z,19.00
2023-05-22T19:54:55.632Z,19.00
2023-05-22T19:58:58.352Z,19.00
2023-05-22T20:03:02.064Z,18.90
2023-05-22T20:07:05.738Z,18.70
2023-05-22T20:11:08.984Z,18.60
2023-05-22T20:15:15.260Z,18.60
2023-05-22T20:19:18.448Z,18.50
2023-05-22T20:23:21.348Z,18.50
2023-05-22T20:27:24.171Z,18.30
2023-05-22T20:31:27.825Z,18.30
2023-05-22T20:35:31.067Z,18.20
2023-05-22T20:39:34.174Z,18.10
2023-05-22T20:43:37.028Z,18.00
2023-05-22T20:47:41.226Z,18.00
2023-05-22T20:51:44.491Z,18.00
2023-05-22T20:55:47.560Z,17.90
2023-05-22T20:59:50.554Z,17.90
2023-05-22T21:03:56.435Z,17.80
2023-05-22T21:07:59.458Z,17.70
2023-05-22T21:12:05.167Z,17.60
2023-05-22T21:16:10.177Z,17.60
2023-05-22T21:20:13.114Z,17.60
2023-05-22T21:24:16.357Z,17.60
2023-05-22T21:28:19.778Z,17.60
2023-05-22T21:32:22.702Z,17.60
2023-05-22T21:36:26.194Z,17.50
2023-05-22T21:40:29.013Z,17.40
2023-05-22T21:44:31.835Z,17.30
2023-05-22T21:48:34.715Z,17.30
2023-05-22T21:52:37.918Z,17.20
2023-05-22T21:56:41.418Z,17.20
2023-05-22T22:00:44.357Z,17.10
2023-05-22T22:04:47.325Z,17.00
2023-05-22T22:08:50.058Z,17.00
2023-05-22T22:12:52.893Z,17.00
2023-05-22T22:16:56.843Z,16.90
2023-05-22T22:21:02.483Z,16.80
2023-05-22T22:25:06.023Z,16.80
2023-05-22T22:29:08.842Z,16.80
2023-05-22T22:33:12.241Z,16.80
2023-05-22T22:37:15.128Z,16.70
2023-05-22T22:41:18.179Z,16.70
2023-05-22T22:45:21.177Z,16.70
2023-05-22T22:49:24.269Z,16.60
2023-05-22T22:53:27.136Z,16.50
2023-05-22T22:57:30.001Z,16.50
2023-05-22T23:01:32.959Z,16.40
2023-05-22T23:05:36.113Z,16.30
2023-05-22T23:09:40.530Z,16.30
2023-05-22T23:13:43.676Z,16.20
2023-05-22T23:17:47.057Z,16.20
2023-05-22T23:21:51.995Z,16.10
2023-05-22T23:25:57.318Z,16.00
2023-05-22T23:30:01.795Z,16.00
2023-05-22T23:34:06.033Z,15.90
2023-05-22T23:38:17.810Z,15.70
2023-05-22T23:42:20.699Z,15.60
2023-05-22T23:46:24.436Z,15.50
2023-05-22T23:50:28.270Z,15.50
2023-05-22T23:54:31.090Z,15.50
2023-05-22T23:58:34.082Z,15.50
